Milton, MA (02186)

4:13 AM EDT on October 25, 2014 (GMT -0400)
Turner's Pond | Change Station
CLOSE
Current Station
Personal Weather Station
Location: Milton, MA
Elevation: 66 ft
Nearby Weather Stations

Elev 66 ft 42.26 °N, 71.08 °W | Updated 1 second ago

Overcast
Overcast
43.9 °F
Feels Like 44 °F
N
0.0
Wind Variable Wind from WSW
Gusts 0.0 mph

Today
High -- | Low -- °F
--% Chance of Precip.
Yesterday
High -- | Low -- °F
Precip. -- in
7:08 AM 5:47 PM
New Moon, 2% visible
Pressure 29.75 in
Visibility 10.0 miles
Clouds Overcast 6000 ft
Windchill 44 °F
Dew Point 42 °F
Humidity 94%
Rainfall 0.00 in
Snow Depth Not available.
UV 0 out of 12
Pollen .30 out of 12
Ozone Good
PM2.5 Good
Flu Activity Sporadic
METAR KOWD 250753Z AUTO 00000KT 10SM OVC060 07/06 A2975 RMK AO2 SLP073 T00720061

More Conditions Fewer Conditions

Pressure 29.75 in
Visibility 10.0 miles
Clouds Overcast 6000 ft
Windchill 44 °F
Dew Point 42 °F
Humidity 94%
Rainfall 0.00 in
Snow Depth Not available.
UV 0 out of 12
Pollen .30 out of 12
Ozone Good
PM2.5 Good
Flu Activity Sporadic
METAR KOWD 250753Z AUTO 00000KT 10SM OVC060 07/06 A2975 RMK AO2 SLP073 T00720061

More Conditions Fewer Conditions

10-Day Weather Forecast

Almanac

Astronomy

Oct. 25, 2014 Rise Set
Actual Time 7:08 AM EDT 5:47 PM EDT
Civil Twilight 6:40 AM EDT 6:15 PM EDT
Nautical Twilight 6:07 AM EDT 6:48 PM EDT
Astronomical Twilight 5:34 AM EDT 7:21 PM EDT
Moon 8:45 AM EDT 7:06 PM EDT
Length of Visible Light 11h 35m
Length of Day
10h 38m
Tomorrow will be 2m 38s shorter.
New Moon, 2% of the Moon is Illuminated
Today
New Moon
Oct 30
First Quarter
Nov 6
Full
Nov 14
Last Quarter
Nov 22
New

Today's Extremes

State Highs State Lows

Community

WunderPhotos

Upload Photos

1,764,791 photos uploaded!

Nearby

Air Quality

  Air Quality AQ Index Pollutant
Yesterday Good
PM2.5
Yesterday Good
OZONE
Current Good
PM2.5
Current Good
OZONE
Saturday Good
PM2.5
Saturday Good
OZONE

Snow Depth

Station Depth Elevation
No new snow has been reported.

Earthquake Activity

City Distance Mag. Time & Date
No recent earthquake activity has been reported nearby.
Minimum magnitude displayed is 2.5.

Coastal Water Temperatures

Place Temperature
Boston, MA 55.0 °F
Providence, RI 57.9 °F
Fall River, MA 60.1 °F
Conimicut Light, RI 59.0 °F

Nearby Weather Stations